Time;durP1;ratioP1;P1;durP2;ratioP2;P2;SDS_P1;SDS_P2;PMS_P1;PMS_P2;Temp;Humidity;BMP_temperature;BMP_pressure;BME280_temperature;BME280_humidity;BME280_pressure;Samples;Min_cycle;Max_cycle;Signal;HPM_P1;HPM_P2
2021/09/16 00:01:03;;;;;;;1.55;1.08;;;;;;;15.46;100.00;100463.75;5044192;28;20045;-81
2021/09/16 00:03:36;;;;;;;1.25;0.80;;;;;;;15.54;100.00;100464.13;5052258;28;20048;-80
2021/09/16 00:06:09;;;;;;;1.58;0.90;;;;;;;15.48;100.00;100460.72;5051560;28;20051;-80
2021/09/16 00:08:44;;;;;;;1.35;0.95;;;;;;;15.35;100.00;100464.38;5050360;28;20418;-80
2021/09/16 00:11:12;;;;;;;0.93;0.80;;;;;;;15.37;100.00;100462.13;5050098;28;20497;-80
2021/09/16 00:13:40;;;;;;;0.70;0.70;;;;;;;15.38;100.00;100469.22;5066831;28;20041;-81
2021/09/16 00:16:13;;;;;;;0.93;0.70;;;;;;;15.31;100.00;100466.94;5051964;28;20048;-81
2021/09/16 00:18:47;;;;;;;1.20;0.70;;;;;;;15.43;100.00;100469.09;5066958;28;20056;-80
2021/09/16 00:21:15;;;;;;;0.95;0.70;;;;;;;15.29;100.00;100467.25;5050734;28;20052;-82
2021/09/16 00:23:49;;;;;;;1.30;0.70;;;;;;;15.36;100.00;100466.00;5067071;28;20069;-81
2021/09/16 00:26:22;;;;;;;0.82;0.60;;;;;;;15.40;100.00;100469.72;5051445;28;20736;-81
2021/09/16 00:28:51;;;;;;;0.70;0.70;;;;;;;15.26;100.00;100469.81;5051801;28;20045;-82
2021/09/16 00:31:24;;;;;;;0.55;0.55;;;;;;;15.22;100.00;100471.56;5041019;28;20056;-81
2021/09/16 00:33:57;;;;;;;0.73;0.60;;;;;;;15.24;100.00;100469.34;5046828;28;20057;-81
2021/09/16 00:36:25;;;;;;;2.22;0.70;;;;;;;15.19;100.00;100467.56;5030656;28;20053;-82
2021/09/16 00:39:00;;;;;;;0.98;0.68;;;;;;;15.14;100.00;100481.38;5031591;28;20493;-83
2021/09/16 00:41:29;;;;;;;1.00;0.70;;;;;;;15.21;100.00;100491.91;5031489;28;20037;-81
2021/09/16 00:44:02;;;;;;;0.77;0.55;;;;;;;15.16;100.00;100486.56;5047085;28;20049;-81
2021/09/16 00:46:35;;;;;;;2.15;0.70;;;;;;;15.08;100.00;100477.97;5046703;28;20053;-81
2021/09/16 00:49:09;;;;;;;0.60;0.50;;;;;;;15.20;100.00;100482.06;5030133;28;20045;-80
2021/09/16 00:51:46;;;;;;;0.88;0.60;;;;;;;15.11;100.00;100482.03;5046515;28;20072;-81
2021/09/16 00:54:21;;;;;;;0.90;0.50;;;;;;;15.16;100.00;100481.06;5046536;28;20060;-81
2021/09/16 00:56:53;;;;;;;0.77;0.50;;;;;;;15.13;100.00;100488.81;5031582;28;20053;-82
2021/09/16 00:59:26;;;;;;;0.55;0.40;;;;;;;15.08;100.00;100469.75;5036074;28;20038;-81
2021/09/16 01:02:00;;;;;;;0.85;0.45;;;;;;;15.20;100.00;100493.03;5048081;28;20037;-80
2021/09/16 01:04:29;;;;;;;0.98;0.50;;;;;;;15.22;100.00;100485.28;5069502;28;20707;-81
2021/09/16 01:07:03;;;;;;;0.68;0.40;;;;;;;15.13;100.00;100488.81;5055287;28;20336;-80
2021/09/16 01:09:38;;;;;;;0.70;0.50;;;;;;;15.10;100.00;100492.16;5070539;28;20071;-81
2021/09/16 01:12:12;;;;;;;0.95;0.65;;;;;;;15.12;100.00;100486.38;5054691;28;20045;-81
2021/09/16 01:14:46;;;;;;;1.38;0.60;;;;;;;15.08;100.00;100482.63;5053788;28;20513;-81
2021/09/16 01:17:19;;;;;;;0.65;0.50;;;;;;;15.06;100.00;100482.16;5053816;28;20049;-81
2021/09/16 01:19:52;;;;;;;0.50;0.50;;;;;;;14.96;100.00;100484.03;5055136;28;20045;-81
2021/09/16 01:22:23;;;;;;;0.50;0.50;;;;;;;14.95;100.00;100492.56;5053065;28;20048;-81
2021/09/16 01:24:57;;;;;;;1.65;0.57;;;;;;;14.98;100.00;100482.91;5033616;28;20045;-82
2021/09/16 01:27:30;;;;;;;0.57;0.50;;;;;;;14.96;100.00;100495.00;5051058;28;20413;-81
2021/09/16 01:30:05;;;;;;;0.85;0.50;;;;;;;15.02;100.00;100494.88;5034257;28;20054;-81
2021/09/16 01:32:39;;;;;;;0.82;0.50;;;;;;;15.02;100.00;100492.94;5035234;28;20057;-81
2021/09/16 01:35:12;;;;;;;1.20;0.52;;;;;;;14.92;100.00;100491.25;5049293;28;20365;-81
2021/09/16 01:37:46;;;;;;;1.05;0.50;;;;;;;14.98;100.00;100496.63;5053185;28;20416;-81
2021/09/16 01:40:20;;;;;;;0.63;0.40;;;;;;;15.03;100.00;100491.00;5069870;28;20064;-80
2021/09/16 01:42:49;;;;;;;0.63;0.40;;;;;;;14.90;100.00;100501.75;5040787;28;20056;-81
2021/09/16 01:45:25;;;;;;;1.15;0.60;;;;;;;15.00;100.00;100495.19;5070488;28;20068;-81
2021/09/16 01:47:58;;;;;;;1.45;0.70;;;;;;;14.92;100.00;100498.69;5054975;28;20052;-81
2021/09/16 01:50:35;;;;;;;0.77;0.47;;;;;;;14.99;100.00;100498.25;5052086;28;20056;-82
2021/09/16 01:53:08;;;;;;;0.63;0.47;;;;;;;14.84;100.00;100499.44;5057581;28;20061;-81
2021/09/16 01:55:43;;;;;;;0.40;0.40;;;;;;;14.86;100.00;100497.19;5050606;28;20045;-81
2021/09/16 01:58:16;;;;;;;0.93;0.60;;;;;;;14.89;100.00;100491.91;5060673;28;20045;-81
2021/09/16 02:00:49;;;;;;;0.45;0.45;;;;;;;14.81;100.00;100491.84;5053247;28;20115;-81
2021/09/16 02:03:22;;;;;;;1.20;0.63;;;;;;;14.85;100.00;100485.44;5049179;28;20049;-81
2021/09/16 02:05:50;;;;;;;1.20;0.60;;;;;;;14.85;100.00;100481.88;5048573;28;20049;-81
2021/09/16 02:08:24;;;;;;;1.35;0.57;;;;;;;14.79;100.00;100478.47;5064063;28;20057;-81
2021/09/16 02:10:58;;;;;;;1.00;0.50;;;;;;;14.75;100.00;100481.03;5053537;28;20544;-80
2021/09/16 02:13:28;;;;;;;0.95;0.50;;;;;;;14.72;100.00;100478.09;5052600;28;20060;-80
2021/09/16 02:16:01;;;;;;;0.47;0.47;;;;;;;14.67;100.00;100478.25;5052396;28;20408;-81
2021/09/16 02:18:29;;;;;;;0.63;0.50;;;;;;;14.71;100.00;100473.75;5052859;28;20084;-81
2021/09/16 02:21:03;;;;;;;0.90;0.60;;;;;;;14.75;100.00;100486.50;5054579;28;20055;-82
2021/09/16 02:23:31;;;;;;;0.65;0.60;;;;;;;14.68;100.00;100488.06;5052644;28;20045;-80
2021/09/16 02:26:06;;;;;;;0.65;0.50;;;;;;;14.68;100.00;100494.34;5054282;28;20063;-80
2021/09/16 02:28:34;;;;;;;1.58;0.70;;;;;;;14.62;100.00;100492.81;5069007;28;20057;-82
2021/09/16 02:31:02;;;;;;;2.22;0.70;;;;;;;14.62;100.00;100501.91;5053257;28;20045;-81
2021/09/16 02:33:35;;;;;;;0.98;0.63;;;;;;;14.57;100.00;100499.25;5053024;28;20076;-80
2021/09/16 02:36:08;;;;;;;0.93;0.57;;;;;;;14.54;100.00;100493.56;5032660;28;20064;-81
2021/09/16 02:38:42;;;;;;;1.20;0.60;;;;;;;14.62;100.00;100501.03;5034052;28;20049;-81
2021/09/16 02:41:16;;;;;;;0.60;0.50;;;;;;;14.57;100.00;100503.88;5032924;28;20524;-81
2021/09/16 02:43:50;;;;;;;0.52;0.50;;;;;;;14.66;100.00;100506.75;5034350;28;20038;-80
2021/09/16 02:46:23;;;;;;;0.52;0.50;;;;;;;14.62;100.00;100501.91;5034210;28;20049;-80
2021/09/16 02:48:57;;;;;;;1.10;0.60;;;;;;;14.57;100.00;100504.72;5032818;28;20401;-81
2021/09/16 02:51:30;;;;;;;0.60;0.60;;;;;;;14.55;100.00;100504.19;5031849;28;20057;-80
2021/09/16 02:54:03;;;;;;;0.47;0.47;;;;;;;14.49;100.00;100505.47;5033695;28;20072;-81
2021/09/16 02:56:37;;;;;;;0.60;0.60;;;;;;;14.41;100.00;100511.69;5034013;28;20047;-80
2021/09/16 02:59:11;;;;;;;0.98;0.70;;;;;;;14.47;100.00;100507.69;5033791;28;20041;-81
2021/09/16 03:01:39;;;;;;;0.65;0.52;;;;;;;14.26;100.00;100488.19;5037782;28;20128;-81
2021/09/16 03:04:12;;;;;;;0.90;0.60;;;;;;;14.41;100.00;100514.41;5035285;28;20493;-81
2021/09/16 03:06:45;;;;;;;0.75;0.57;;;;;;;14.39;100.00;100519.38;5048448;28;20057;-80
2021/09/16 03:09:13;;;;;;;0.73;0.60;;;;;;;14.41;100.00;100526.16;5048274;28;20419;-81
2021/09/16 03:11:48;;;;;;;0.50;0.50;;;;;;;14.31;100.00;100529.16;5033542;28;20045;-80
2021/09/16 03:14:21;;;;;;;1.40;0.60;;;;;;;14.40;100.00;100529.22;5033529;28;20064;-82
2021/09/16 03:16:49;;;;;;;1.00;0.60;;;;;;;14.32;100.00;100535.44;5049246;28;20053;-81
2021/09/16 03:19:22;;;;;;;0.85;0.50;;;;;;;14.25;100.00;100538.56;5048671;28;20052;-80
2021/09/16 03:21:56;;;;;;;0.38;0.38;;;;;;;14.28;100.00;100533.31;5041831;28;20056;-81
2021/09/16 03:24:29;;;;;;;0.57;0.45;;;;;;;14.20;100.00;100531.31;5068547;28;20493;-80
2021/09/16 03:27:04;;;;;;;0.98;0.40;;;;;;;14.14;100.00;100529.81;5051285;28;20045;-81
2021/09/16 03:29:37;;;;;;;0.30;0.30;;;;;;;14.04;100.00;100535.50;5068169;28;20060;-81
2021/09/16 03:32:10;;;;;;;0.73;0.50;;;;;;;14.03;100.00;100531.13;5040716;28;20152;-81
2021/09/16 03:34:43;;;;;;;0.68;0.40;;;;;;;14.00;100.00;100532.53;5053132;28;20044;-82
2021/09/16 03:37:16;;;;;;;1.15;0.50;;;;;;;14.01;100.00;100533.38;5051370;28;20485;-82
2021/09/16 03:39:49;;;;;;;1.40;0.40;;;;;;;13.97;100.00;100532.38;5072837;28;20044;-81
2021/09/16 03:42:24;;;;;;;0.43;0.30;;;;;;;14.00;100.00;100537.22;5057351;28;20048;-81
2021/09/16 03:44:57;;;;;;;0.40;0.30;;;;;;;14.03;100.00;100531.13;5070042;28;20043;-80
2021/09/16 03:47:30;;;;;;;1.02;0.40;;;;;;;13.90;100.00;100530.84;5055142;28;20519;-82
2021/09/16 03:50:04;;;;;;;1.42;0.50;;;;;;;13.90;100.00;100530.03;5059630;28;20052;-81
2021/09/16 03:52:37;;;;;;;0.55;0.30;;;;;;;13.87;100.00;100536.13;5060319;28;20052;-81
2021/09/16 03:55:11;;;;;;;0.63;0.40;;;;;;;13.85;100.00;100527.41;5062755;28;20045;-81
2021/09/16 03:57:45;;;;;;;0.52;0.50;;;;;;;13.82;100.00;100528.03;5059114;28;20049;-80
2021/09/16 04:00:19;;;;;;;0.40;0.40;;;;;;;13.69;100.00;100546.88;5057562;28;20130;-82
2021/09/16 04:02:47;;;;;;;0.43;0.30;;;;;;;13.75;100.00;100533.91;5044521;28;20052;-81
2021/09/16 04:05:20;;;;;;;0.63;0.40;;;;;;;13.72;100.00;100529.03;5067860;28;20060;-81
2021/09/16 04:07:53;;;;;;;0.50;0.30;;;;;;;13.69;100.00;100543.34;5047623;28;20451;-83
2021/09/16 04:10:26;;;;;;;0.38;0.30;;;;;;;13.76;100.00;100538.25;5056931;28;20045;-81
2021/09/16 04:12:56;;;;;;;0.95;0.40;;;;;;;13.79;100.00;100537.66;5051920;28;20565;-81
2021/09/16 04:15:29;;;;;;;0.57;0.40;;;;;;;13.86;100.00;100537.25;5050317;28;20374;-81
2021/09/16 04:18:03;;;;;;;0.30;0.30;;;;;;;13.70;100.00;100537.56;5067221;28;20075;-81
2021/09/16 04:20:36;;;;;;;1.20;0.50;;;;;;;13.60;100.00;100537.75;5051704;28;20049;-81
2021/09/16 04:23:09;;;;;;;0.50;0.30;;;;;;;13.71;100.00;100536.44;5049367;28;20060;-81
2021/09/16 04:25:42;;;;;;;1.38;0.50;;;;;;;13.71;100.00;100549.28;5052143;28;20056;-81
2021/09/16 04:28:17;;;;;;;0.65;0.30;;;;;;;13.60;100.00;100548.69;5051923;28;20053;-80
2021/09/16 04:30:50;;;;;;;0.30;0.30;;;;;;;13.63;100.00;100550.00;5041594;28;20056;-80
2021/09/16 04:33:23;;;;;;;0.30;0.30;;;;;;;13.59;100.00;100553.34;5045600;28;20060;-81
2021/09/16 04:35:51;;;;;;;0.43;0.30;;;;;;;13.55;100.00;100544.13;5050719;28;20041;-80
2021/09/16 04:38:24;;;;;;;0.70;0.38;;;;;;;13.53;100.00;100540.88;5059029;28;20485;-81
2021/09/16 04:40:58;;;;;;;0.63;0.30;;;;;;;13.43;100.00;100543.81;5051599;28;20045;-81
2021/09/16 04:43:32;;;;;;;0.52;0.30;;;;;;;13.51;100.00;100554.06;5050867;28;20036;-81
2021/09/16 04:46:05;;;;;;;0.47;0.30;;;;;;;13.49;100.00;100559.03;5050060;28;20048;-82
2021/09/16 04:48:39;;;;;;;0.73;0.30;;;;;;;13.47;100.00;100553.03;5047864;28;20053;-81
2021/09/16 04:51:12;;;;;;;0.70;0.40;;;;;;;13.46;100.00;100567.00;5039074;28;20049;-81
2021/09/16 04:53:45;;;;;;;0.45;0.40;;;;;;;13.46;100.00;100573.28;5051524;28;20049;-82
2021/09/16 04:56:19;;;;;;;0.40;0.40;;;;;;;13.42;100.00;100572.25;5052313;28;20067;-81
2021/09/16 04:58:48;;;;;;;0.47;0.30;;;;;;;13.42;100.00;100572.25;5050006;28;20049;-80
2021/09/16 05:01:21;;;;;;;0.30;0.30;;;;;;;13.39;100.00;100568.19;5046401;28;20446;-82
2021/09/16 05:03:54;;;;;;;0.35;0.28;;;;;;;13.37;100.00;100569.63;5058682;28;20045;-80
2021/09/16 05:06:23;;;;;;;0.63;0.30;;;;;;;13.36;100.00;100563.34;5048546;28;20052;-82
2021/09/16 05:08:51;;;;;;;0.52;0.40;;;;;;;13.39;100.00;100564.66;5051185;28;20048;-81
2021/09/16 05:11:24;;;;;;;0.30;0.30;;;;;;;13.37;100.00;100564.97;5065497;28;20059;-80
2021/09/16 05:13:58;;;;;;;0.47;0.30;;;;;;;13.27;100.00;100571.41;5050763;28;20049;-81
2021/09/16 05:16:32;;;;;;;0.22;0.22;;;;;;;13.26;100.00;100564.31;5050632;28;20413;-81
2021/09/16 05:19:00;;;;;;;1.10;0.40;;;;;;;13.22;100.00;100560.56;5048805;28;20060;-81
2021/09/16 05:21:33;;;;;;;0.30;0.30;;;;;;;13.16;100.00;100558.22;5051161;28;20049;-81
2021/09/16 05:24:06;;;;;;;0.70;0.40;;;;;;;13.16;100.00;100559.03;5041444;28;20730;-80
2021/09/16 05:26:39;;;;;;;0.55;0.35;;;;;;;13.18;100.00;100550.53;5055376;28;20053;-81
2021/09/16 05:29:09;;;;;;;0.57;0.30;;;;;;;13.17;100.00;100557.09;5042074;28;20052;-80
2021/09/16 05:31:42;;;;;;;0.32;0.32;;;;;;;13.16;100.00;100563.69;5050829;28;20045;-80
2021/09/16 05:34:11;;;;;;;1.00;0.35;;;;;;;13.18;100.00;100573.19;5051095;28;20485;-81
2021/09/16 05:36:46;;;;;;;0.73;0.38;;;;;;;13.25;100.00;100565.41;5048937;28;20060;-82
2021/09/16 05:39:14;;;;;;;0.30;0.30;;;;;;;13.18;100.00;100556.81;5065055;28;20061;-82
2021/09/16 05:41:47;;;;;;;0.30;0.30;;;;;;;13.23;100.00;100562.19;5047237;28;20045;-81
2021/09/16 05:44:21;;;;;;;0.32;0.30;;;;;;;13.14;100.00;100561.25;5047635;28;20064;-81
2021/09/16 05:46:55;;;;;;;0.20;0.20;;;;;;;13.10;100.00;100562.97;5048618;28;20389;-81
2021/09/16 05:49:24;;;;;;;0.30;0.30;;;;;;;13.04;100.00;100558.72;5050840;28;20053;-81
2021/09/16 05:51:57;;;;;;;0.30;0.30;;;;;;;13.00;100.00;100554.94;5087995;28;20404;-81
2021/09/16 05:54:30;;;;;;;0.98;0.40;;;;;;;13.01;100.00;100560.09;5054884;28;20044;-81
2021/09/16 05:56:59;;;;;;;0.90;0.40;;;;;;;13.05;100.00;100563.03;5053219;28;20045;-81
2021/09/16 05:59:33;;;;;;;0.50;0.32;;;;;;;13.29;100.00;100564.84;5055226;28;20045;-81
2021/09/16 06:02:07;;;;;;;0.30;0.30;;;;;;;13.29;100.00;100562.09;5048525;28;20057;-81
2021/09/16 06:04:40;;;;;;;0.40;0.30;;;;;;;13.32;100.00;100559.56;5050037;28;20481;-81
2021/09/16 06:07:13;;;;;;;0.35;0.32;;;;;;;13.20;100.00;100567.44;5068741;28;20045;-81
2021/09/16 06:09:46;;;;;;;0.38;0.30;;;;;;;13.30;100.00;100561.81;5039325;28;20048;-81
2021/09/16 06:12:20;;;;;;;0.35;0.35;;;;;;;13.42;100.00;100569.53;5068529;28;20060;-82
2021/09/16 06:14:50;;;;;;;0.43;0.30;;;;;;;13.53;100.00;100570.94;5053108;28;20053;-81
2021/09/16 06:17:18;;;;;;;0.73;0.40;;;;;;;13.41;100.00;100566.00;5066630;28;20049;-82
2021/09/16 06:19:51;;;;;;;1.15;0.40;;;;;;;13.36;100.00;100581.69;5048888;28;20053;-82
2021/09/16 06:22:25;;;;;;;0.85;0.40;;;;;;;13.37;100.00;100570.44;5068412;28;20045;-82
2021/09/16 06:24:58;;;;;;;0.50;0.40;;;;;;;13.41;100.00;100576.13;5050437;28;20362;-82
2021/09/16 06:27:31;;;;;;;0.95;0.50;;;;;;;13.43;100.00;100582.09;5051048;28;20048;-80
2021/09/16 06:30:07;;;;;;;0.40;0.40;;;;;;;13.39;100.00;100579.13;5063286;28;20050;-80
2021/09/16 06:32:45;;;;;;;0.57;0.40;;;;;;;13.38;100.00;100596.66;5043951;28;20046;-81
2021/09/16 06:35:20;;;;;;;0.30;0.25;;;;;;;13.30;100.00;100591.88;5051019;28;20061;-81
2021/09/16 06:37:53;;;;;;;0.30;0.30;;;;;;;13.35;100.00;100588.22;5054904;28;20064;-82
2021/09/16 06:40:27;;;;;;;0.38;0.38;;;;;;;13.44;100.00;100591.91;5042122;28;20049;-81
2021/09/16 06:42:55;;;;;;;0.40;0.35;;;;;;;13.36;100.00;100595.34;5053751;28;20060;-81
2021/09/16 06:45:30;;;;;;;0.55;0.40;;;;;;;13.35;100.00;100599.16;5046354;28;20060;-82
2021/09/16 06:47:58;;;;;;;0.85;0.40;;;;;;;13.37;100.00;100588.78;5040762;28;21471;-81
2021/09/16 06:50:31;;;;;;;0.30;0.30;;;;;;;13.42;100.00;100585.94;5055714;28;20634;-83
2021/09/16 06:53:05;;;;;;;0.73;0.50;;;;;;;13.35;100.00;100591.78;5047063;28;20053;-83
2021/09/16 06:55:40;;;;;;;0.73;0.30;;;;;;;13.38;100.00;100596.66;5040806;28;20079;-84
2021/09/16 06:58:26;;;;;;;0.30;0.30;;;;;;;13.48;100.00;100592.09;5040522;28;20052;-82
2021/09/16 07:01:00;;;;;;;0.52;0.40;;;;;;;13.38;100.00;100593.09;5042256;28;20053;-82
2021/09/16 07:03:34;;;;;;;0.50;0.40;;;;;;;13.41;100.00;100598.78;5038414;28;20056;-83
2021/09/16 07:06:07;;;;;;;1.15;0.40;;;;;;;13.45;100.00;100599.00;5037561;28;20052;-82
2021/09/16 07:08:41;;;;;;;0.47;0.40;;;;;;;13.49;100.00;100594.56;5038716;28;20053;-82
2021/09/16 07:11:09;;;;;;;0.30;0.30;;;;;;;13.52;100.00;100598.59;5036920;28;20162;-84
2021/09/16 07:13:49;;;;;;;0.50;0.50;;;;;;;13.49;100.00;100593.75;5049354;28;20048;-83
2021/09/16 07:16:18;;;;;;;1.02;0.55;;;;;;;13.58;100.00;100595.47;5027262;28;20063;-85
2021/09/16 07:18:47;;;;;;;0.40;0.30;;;;;;;13.53;100.00;100602.97;5027360;28;20064;-84
2021/09/16 07:21:21;;;;;;;1.13;0.40;;;;;;;13.51;100.00;100603.25;5045912;28;20067;-83
2021/09/16 07:23:54;;;;;;;0.45;0.45;;;;;;;13.56;100.00;100605.09;5030185;28;20056;-83
2021/09/16 07:26:27;;;;;;;0.63;0.50;;;;;;;13.58;100.00;100597.41;5041988;28;20068;-82
2021/09/16 07:29:09;;;;;;;0.85;0.40;;;;;;;13.64;100.00;100603.59;5032987;28;20060;-83
2021/09/16 07:31:44;;;;;;;0.40;0.40;;;;;;;13.72;100.00;100616.56;5029366;28;20049;-82
2021/09/16 07:34:20;;;;;;;1.20;0.50;;;;;;;13.65;100.00;100606.00;5025954;28;20052;-82
2021/09/16 07:36:53;;;;;;;0.60;0.40;;;;;;;13.70;100.00;100610.56;5030196;28;20721;-83
2021/09/16 07:39:32;;;;;;;0.63;0.57;;;;;;;13.82;100.00;100610.88;5023857;28;20520;-82
2021/09/16 07:42:05;;;;;;;0.57;0.38;;;;;;;13.84;100.00;100605.13;5037772;28;20053;-81
2021/09/16 07:44:39;;;;;;;0.40;0.40;;;;;;;13.75;100.00;100621.41;5028930;28;20068;-82
2021/09/16 07:47:09;;;;;;;1.38;0.47;;;;;;;13.86;100.00;100627.50;5032201;28;21525;-82
2021/09/16 07:49:44;;;;;;;0.70;0.57;;;;;;;13.84;100.00;100625.06;5028939;28;20056;-83
2021/09/16 07:52:17;;;;;;;1.00;0.50;;;;;;;13.74;100.00;100630.72;5024082;28;20053;-81
2021/09/16 07:54:51;;;;;;;1.02;0.63;;;;;;;13.67;100.00;100622.13;5025601;28;20484;-83
2021/09/16 07:57:24;;;;;;;0.47;0.40;;;;;;;13.82;100.00;100626.50;5030218;28;20485;-83
2021/09/16 07:59:53;;;;;;;0.68;0.57;;;;;;;13.84;100.00;100637.94;5030623;28;20139;-82
2021/09/16 08:02:28;;;;;;;0.77;0.50;;;;;;;13.92;100.00;100627.09;5027740;28;20059;-82
2021/09/16 08:05:01;;;;;;;0.65;0.50;;;;;;;13.92;100.00;100624.38;5030295;28;20053;-83
2021/09/16 08:07:34;;;;;;;0.75;0.50;;;;;;;13.98;100.00;100625.06;5029895;28;20065;-82
2021/09/16 08:10:06;;;;;;;0.70;0.50;;;;;;;14.03;100.00;100629.63;5027622;28;20616;-83
2021/09/16 08:12:40;;;;;;;0.52;0.47;;;;;;;14.06;100.00;100638.06;5034908;28;20049;-83
2021/09/16 08:15:14;;;;;;;0.68;0.60;;;;;;;14.17;100.00;100626.88;5029051;28;20049;-83
2021/09/16 08:17:49;;;;;;;0.95;0.50;;;;;;;14.19;100.00;100625.47;5041298;28;20057;-83
2021/09/16 08:20:23;;;;;;;0.73;0.47;;;;;;;14.31;100.00;100630.44;5029528;28;20041;-82
2021/09/16 08:22:56;;;;;;;0.40;0.40;;;;;;;14.39;100.00;100634.34;5029273;28;20052;-83
2021/09/16 08:25:29;;;;;;;1.02;0.50;;;;;;;14.58;100.00;100620.53;5032435;28;20063;-82
2021/09/16 08:27:57;;;;;;;0.40;0.40;;;;;;;14.52;100.00;100624.53;5031028;28;20448;-83
2021/09/16 08:30:31;;;;;;;0.60;0.50;;;;;;;14.47;100.00;100628.16;5028388;28;20061;-83
2021/09/16 08:33:05;;;;;;;0.32;0.32;;;;;;;14.41;100.00;100632.94;5024988;28;20057;-83
2021/09/16 08:35:39;;;;;;;0.52;0.50;;;;;;;14.38;100.00;100630.81;5040309;28;20061;-81
2021/09/16 08:38:14;;;;;;;0.80;0.50;;;;;;;14.43;100.00;100641.66;5024776;28;20061;-82
2021/09/16 08:40:49;;;;;;;0.43;0.40;;;;;;;14.58;100.00;100635.06;5029377;28;20059;-82
2021/09/16 08:43:20;;;;;;;0.40;0.40;;;;;;;14.49;100.00;100627.88;5025065;28;20061;-82
2021/09/16 08:45:53;;;;;;;0.88;0.50;;;;;;;14.59;100.00;100638.59;5025739;28;20056;-82
2021/09/16 08:48:28;;;;;;;0.50;0.47;;;;;;;14.56;100.00;100631.78;5027458;28;20057;-82
2021/09/16 08:51:02;;;;;;;0.75;0.50;;;;;;;14.37;100.00;100631.94;5031263;28;20064;-81
2021/09/16 08:53:36;;;;;;;0.43;0.40;;;;;;;14.49;100.00;100636.91;5033974;28;20049;-83
2021/09/16 08:56:10;;;;;;;0.75;0.50;;;;;;;14.47;100.00;100633.63;5033057;28;20053;-82
2021/09/16 08:58:46;;;;;;;0.43;0.43;;;;;;;14.50;100.00;100634.94;5029578;28;20060;-82
2021/09/16 09:01:19;;;;;;;0.50;0.40;;;;;;;14.55;100.00;100629.38;5026098;28;20068;-81
2021/09/16 09:03:56;;;;;;;0.40;0.40;;;;;;;14.55;100.00;100634.84;5031734;28;20056;-83
2021/09/16 09:06:32;;;;;;;0.40;0.40;;;;;;;14.69;100.00;100634.84;5030336;28;20509;-82
2021/09/16 09:09:07;;;;;;;0.88;0.40;;;;;;;14.67;100.00;100632.41;5025238;28;20061;-85
2021/09/16 09:11:55;;;;;;;0.50;0.50;;;;;;;14.67;100.00;100643.38;5028521;28;20416;-82
2021/09/16 09:14:31;;;;;;;0.30;0.30;;;;;;;14.77;100.00;100640.38;5036552;28;20052;-84
2021/09/16 09:17:17;;;;;;;1.65;0.52;;;;;;;14.63;100.00;100629.47;5029331;28;20655;-82
2021/09/16 09:19:47;;;;;;;0.40;0.40;;;;;;;14.70;100.00;100637.28;5030815;28;20059;-83
2021/09/16 09:22:16;;;;;;;0.30;0.30;;;;;;;14.75;100.00;100636.38;5034549;28;20856;-82
2021/09/16 09:24:47;;;;;;;0.90;0.40;;;;;;;14.78;100.00;100643.97;5034219;28;21535;-81
2021/09/16 09:27:23;;;;;;;0.40;0.40;;;;;;;14.87;100.00;100641.28;5028556;28;20481;-82
2021/09/16 09:30:11;;;;;;;0.47;0.30;;;;;;;14.82;100.00;100635.91;5028636;28;20057;-83
2021/09/16 09:32:49;;;;;;;0.82;0.50;;;;;;;14.79;100.00;100631.88;5033488;28;20057;-82
2021/09/16 09:35:28;;;;;;;0.45;0.45;;;;;;;14.87;100.00;100628.38;5036271;28;20059;-83
2021/09/16 09:38:04;;;;;;;0.40;0.40;;;;;;;15.10;100.00;100636.63;5029780;28;20045;-82
2021/09/16 09:40:43;;;;;;;0.85;0.50;;;;;;;15.16;100.00;100629.09;5030251;28;20507;-83
2021/09/16 09:43:25;;;;;;;0.50;0.50;;;;;;;15.20;100.00;100638.31;5026901;28;20049;-81
2021/09/16 09:46:08;;;;;;;0.50;0.40;;;;;;;15.11;100.00;100628.09;5034563;28;20060;-81
2021/09/16 09:48:38;;;;;;;;;;;;;;;15.10;100.00;100622.94;5033445;28;20053;-83
2021/09/16 09:51:15;;;;;;;0.30;0.30;;;;;;;15.17;100.00;100622.50;5018027;28;19935;-83
2021/09/16 09:53:51;;;;;;;1.13;0.50;;;;;;;15.36;100.00;100633.25;5022102;28;20059;-82
2021/09/16 09:56:25;;;;;;;0.75;0.50;;;;;;;15.45;100.00;100625.88;5033910;28;20059;-82
2021/09/16 09:59:00;;;;;;;0.90;0.50;;;;;;;15.42;100.00;100621.03;5033765;28;20061;-81
2021/09/16 10:01:35;;;;;;;0.30;0.30;;;;;;;15.55;100.00;100631.09;5034578;28;20048;-83
2021/09/16 10:04:26;;;;;;;0.30;0.30;;;;;;;15.53;100.00;100630.59;5021281;28;20057;-83
2021/09/16 10:07:06;;;;;;;0.25;0.25;;;;;;;15.49;100.00;100618.63;5033281;28;20052;-83
2021/09/16 10:09:40;;;;;;;0.40;0.40;;;;;;;15.54;100.00;100625.94;5031213;28;20153;-83
2021/09/16 10:12:14;;;;;;;0.30;0.30;;;;;;;15.50;100.00;100625.75;5041964;28;20053;-84
2021/09/16 10:14:48;;;;;;;0.30;0.30;;;;;;;15.62;100.00;100633.41;5034483;28;20065;-81
2021/09/16 10:17:22;;;;;;;0.40;0.40;;;;;;;15.47;100.00;100618.16;5049320;28;20057;-84
2021/09/16 10:24:18;;;;;;;0.43;0.40;;;;;;;15.78;100.00;100631.88;5038376;28;20052;-82
2021/09/16 10:26:51;;;;;;;0.30;0.30;;;;;;;15.90;100.00;100625.00;5017557;28;20067;-82
2021/09/16 10:29:50;;;;;;;0.30;0.30;;;;;;;15.92;100.00;100617.25;5037729;28;20037;-82
2021/09/16 10:32:39;;;;;;;0.60;0.50;;;;;;;16.13;100.00;100623.78;5039104;28;20048;-82
2021/09/16 10:35:31;;;;;;;0.45;0.40;;;;;;;16.26;99.15;100622.03;5029041;28;21252;-82
2021/09/16 10:38:25;;;;;;;0.30;0.30;;;;;;;16.10;99.95;100627.16;5026658;28;20041;-82
2021/09/16 10:41:22;;;;;;;0.47;0.30;;;;;;;16.13;99.26;100615.53;5027696;28;20234;-82
2021/09/16 10:44:19;;;;;;;0.30;0.30;;;;;;;16.17;97.89;100612.94;5029312;28;20511;-82
2021/09/16 10:51:01;;;;;;;0.30;0.30;;;;;;;16.27;98.60;100609.13;5035414;28;20057;-84
2021/09/16 10:53:42;;;;;;;0.30;0.30;;;;;;;16.47;97.36;100604.94;5033668;28;20053;-82
2021/09/16 10:56:39;;;;;;;0.30;0.20;;;;;;;16.45;97.40;100608.00;5023836;28;20049;-80
2021/09/16 10:59:09;;;;;;;0.30;0.30;;;;;;;16.49;97.57;100614.47;5023968;28;20053;-82
2021/09/16 11:02:02;;;;;;;0.80;0.40;;;;;;;16.41;95.93;100607.03;5016337;28;20045;-82
2021/09/16 11:05:06;;;;;;;0.28;0.28;;;;;;;16.39;98.01;100613.97;5026502;28;20394;-82
2021/09/16 11:07:56;;;;;;;0.50;0.30;;;;;;;16.38;97.86;100604.94;5023831;28;20053;-81
2021/09/16 11:10:53;;;;;;;0.38;0.38;;;;;;;16.26;96.47;100602.81;5024562;28;20056;-81
2021/09/16 11:13:41;;;;;;;0.95;0.45;;;;;;;16.27;97.79;100611.88;5025735;28;20511;-82
2021/09/16 11:16:21;;;;;;;0.28;0.28;;;;;;;16.32;97.60;100629.00;5018046;28;20045;-82
2021/09/16 11:18:52;;;;;;;0.88;0.43;;;;;;;16.28;98.90;100625.28;5023153;28;20060;-80
2021/09/16 11:21:25;;;;;;;0.35;0.25;;;;;;;16.26;96.78;100615.72;5024226;28;20053;-80
2021/09/16 11:23:59;;;;;;;0.50;0.40;;;;;;;16.42;95.81;100616.06;5018815;28;20055;-81
2021/09/16 11:26:32;;;;;;;0.35;0.35;;;;;;;16.46;97.77;100619.78;5021679;28;20060;-86
2021/09/16 11:29:09;;;;;;;0.65;0.40;;;;;;;16.55;96.82;100623.38;5029094;28;20045;-85
2021/09/16 11:31:49;;;;;;;0.30;0.30;;;;;;;16.37;95.55;100600.56;5039447;28;20044;-84
2021/09/16 11:34:23;;;;;;;1.05;0.50;;;;;;;16.42;95.25;100618.81;5027541;28;20064;-85
2021/09/16 11:37:08;;;;;;;0.60;0.40;;;;;;;16.30;95.05;100617.50;5011293;28;20049;-84
2021/09/16 11:39:37;;;;;;;0.85;0.50;;;;;;;16.25;96.72;100625.88;5027352;28;20057;-86
2021/09/16 11:42:21;;;;;;;1.02;0.65;;;;;;;16.27;97.00;100634.63;5027993;28;21869;-84
2021/09/16 11:45:14;;;;;;;0.60;0.50;;;;;;;16.13;96.83;100621.03;5045240;28;20836;-83
2021/09/16 11:47:51;;;;;;;0.77;0.30;;;;;;;16.34;98.67;100625.94;5030155;28;20053;-82
2021/09/16 11:50:28;;;;;;;0.75;0.40;;;;;;;16.31;97.67;100618.34;5028885;28;20057;-83
2021/09/16 11:53:04;;;;;;;0.40;0.40;;;;;;;16.62;98.28;100622.91;5030423;28;20412;-84
2021/09/16 11:55:35;;;;;;;0.30;0.30;;;;;;;16.77;98.93;100621.59;5022535;28;20057;-80
2021/09/16 11:58:14;;;;;;;0.70;0.47;;;;;;;16.83;96.87;100617.56;5014382;28;21691;-82
2021/09/16 12:00:50;;;;;;;0.40;0.40;;;;;;;16.93;96.91;100614.53;5018976;28;20761;-82